createdAt,value
2023-01-08T00:02:06.161Z,1.53
2023-01-08T00:04:55.568Z,1.48
2023-01-08T00:07:43.379Z,1.44
2023-01-08T00:10:31.456Z,1.42
2023-01-08T00:13:19.566Z,1.38
2023-01-08T00:16:09.654Z,1.34
2023-01-08T00:18:57.659Z,1.32
2023-01-08T00:21:47.073Z,1.30
2023-01-08T00:24:35.084Z,1.25
2023-01-08T00:27:23.089Z,1.21
2023-01-08T00:30:11.957Z,1.20
2023-01-08T00:33:01.022Z,1.17
2023-01-08T00:35:48.848Z,1.15
2023-01-08T00:38:37.949Z,1.12
2023-01-08T00:41:26.014Z,1.11
2023-01-08T00:44:13.946Z,1.08
2023-01-08T00:47:01.670Z,1.08
2023-01-08T00:49:49.716Z,1.04
2023-01-08T00:52:39.403Z,1.00
2023-01-08T00:55:28.705Z,0.98
2023-01-08T00:58:17.076Z,0.99
2023-01-08T01:01:09.971Z,0.95
2023-01-08T01:03:57.979Z,0.96
2023-01-08T01:06:46.887Z,0.94
2023-01-08T01:09:34.910Z,0.95
2023-01-08T01:12:24.276Z,0.98
2023-01-08T01:15:15.283Z,0.99
2023-01-08T01:18:02.873Z,1.08
2023-01-08T01:20:54.491Z,1.20
2023-01-08T01:23:42.819Z,1.03
2023-01-08T01:26:31.917Z,1.01
2023-01-08T01:29:21.185Z,0.96
2023-01-08T01:32:09.591Z,0.95
2023-01-08T01:34:58.551Z,1.00
2023-01-08T01:37:46.626Z,0.96
2023-01-08T01:40:34.624Z,0.99
2023-01-08T01:43:36.494Z,0.96
2023-01-08T01:46:36.934Z,0.90
2023-01-08T01:49:25.171Z,0.85
2023-01-08T01:52:13.656Z,0.83
2023-01-08T01:55:02.491Z,0.82
2023-01-08T01:57:56.266Z,0.85
2023-01-08T02:00:44.937Z,0.89
2023-01-08T02:03:37.410Z,0.96
2023-01-08T02:06:36.914Z,0.93
2023-01-08T02:09:34.048Z,1.15
2023-01-08T02:12:30.692Z,1.43
2023-01-08T02:15:24.059Z,1.52
2023-01-08T02:18:18.968Z,1.49
2023-01-08T02:21:12.261Z,1.53
2023-01-08T02:24:08.389Z,1.57
2023-01-08T02:27:02.878Z,1.51
2023-01-08T02:29:52.476Z,1.66
2023-01-08T02:32:42.935Z,1.62
2023-01-08T02:35:41.812Z,1.60
2023-01-08T02:38:30.351Z,1.62
2023-01-08T02:41:23.579Z,1.66
2023-01-08T02:44:19.459Z,1.60
2023-01-08T02:47:13.141Z,1.55
2023-01-08T02:50:10.290Z,1.52
2023-01-08T02:53:04.342Z,1.49
2023-01-08T02:55:56.359Z,1.39
2023-01-08T02:58:46.873Z,1.39
2023-01-08T03:01:37.004Z,1.38
2023-01-08T03:04:28.745Z,1.30
2023-01-08T03:07:16.829Z,1.32
2023-01-08T03:10:04.882Z,1.34
2023-01-08T03:12:57.862Z,1.29
2023-01-08T03:15:50.858Z,1.23
2023-01-08T03:18:45.275Z,1.21
2023-01-08T03:21:34.068Z,1.22
2023-01-08T03:24:28.263Z,1.27
2023-01-08T03:27:20.098Z,1.41
2023-01-08T03:30:12.175Z,1.54
2023-01-08T03:33:02.606Z,1.58
2023-01-08T03:35:54.255Z,1.48
2023-01-08T03:38:48.554Z,1.44
2023-01-08T03:41:38.076Z,1.48
2023-01-08T03:44:26.281Z,1.44
2023-01-08T03:47:16.323Z,1.47
2023-01-08T03:50:08.376Z,1.45
2023-01-08T03:53:00.456Z,1.43
2023-01-08T03:55:48.441Z,1.37
2023-01-08T03:58:36.395Z,1.43
2023-01-08T04:01:26.633Z,1.45
2023-01-08T04:04:14.811Z,1.51
2023-01-08T04:07:02.513Z,1.54
2023-01-08T04:09:52.855Z,1.65
2023-01-08T04:12:42.136Z,1.63
2023-01-08T04:15:29.903Z,1.70
2023-01-08T04:18:17.885Z,1.64
2023-01-08T04:21:07.257Z,1.59
2023-01-08T04:23:55.426Z,1.57
2023-01-08T04:26:44.731Z,1.58
2023-01-08T04:29:32.613Z,1.59
2023-01-08T04:32:21.039Z,1.57
2023-01-08T04:35:09.316Z,1.53
2023-01-08T04:37:57.321Z,1.54
2023-01-08T04:40:45.350Z,1.60
2023-01-08T04:43:34.999Z,1.41
2023-01-08T04:46:22.909Z,1.30
2023-01-08T04:49:14.730Z,1.43
2023-01-08T04:52:02.502Z,1.47
2023-01-08T04:54:50.499Z,1.57
2023-01-08T04:57:41.655Z,1.61
2023-01-08T05:00:31.309Z,1.71
2023-01-08T05:03:19.185Z,1.73
2023-01-08T05:06:07.517Z,1.78
2023-01-08T05:08:55.280Z,1.80
2023-01-08T05:11:43.314Z,1.84
2023-01-08T05:14:31.378Z,1.87
2023-01-08T05:17:20.623Z,1.86
2023-01-08T05:20:09.510Z,1.77
2023-01-08T05:22:58.474Z,1.71
2023-01-08T05:25:46.470Z,1.70
2023-01-08T05:28:35.619Z,1.65
2023-01-08T05:31:23.167Z,1.67
2023-01-08T05:34:12.606Z,1.68
2023-01-08T05:37:03.127Z,1.73
2023-01-08T05:39:51.274Z,1.73
2023-01-08T05:42:39.299Z,1.86
2023-01-08T05:45:27.222Z,1.90
2023-01-08T05:48:15.102Z,1.90
2023-01-08T05:51:04.992Z,1.88
2023-01-08T05:53:52.952Z,1.90
2023-01-08T05:56:41.133Z,1.94
2023-01-08T05:59:29.209Z,1.99
2023-01-08T06:02:17.136Z,2.12
2023-01-08T06:05:06.490Z,2.14
2023-01-08T06:07:55.749Z,2.14
2023-01-08T06:10:43.488Z,2.22
2023-01-08T06:13:31.822Z,2.31
2023-01-08T06:16:20.974Z,2.43
2023-01-08T06:19:10.743Z,2.52
2023-01-08T06:21:58.512Z,2.48
2023-01-08T06:24:50.279Z,2.62
2023-01-08T06:27:40.480Z,2.67
2023-01-08T06:30:28.664Z,2.78
2023-01-08T06:33:16.829Z,2.84
2023-01-08T06:36:06.106Z,2.93
2023-01-08T06:38:55.778Z,2.97
2023-01-08T06:41:47.756Z,3.04
2023-01-08T06:44:35.459Z,3.04
2023-01-08T06:47:23.577Z,3.05
2023-01-08T06:50:12.648Z,3.19
2023-01-08T06:53:01.126Z,3.19
2023-01-08T06:55:49.175Z,3.26
2023-01-08T06:58:39.268Z,3.27
2023-01-08T07:01:27.389Z,3.29
2023-01-08T07:04:15.249Z,3.28
2023-01-08T07:07:03.430Z,3.29
2023-01-08T07:09:51.216Z,3.30
2023-01-08T07:12:39.463Z,3.29
2023-01-08T07:15:28.559Z,3.34
2023-01-08T07:18:16.746Z,3.33
2023-01-08T07:21:05.068Z,3.30
2023-01-08T07:24:03.672Z,3.30
2023-01-08T07:26:51.778Z,3.34
2023-01-08T07:29:41.597Z,3.33
2023-01-08T07:32:32.337Z,3.36
2023-01-08T07:35:20.128Z,3.38
2023-01-08T07:38:07.987Z,3.34
2023-01-08T07:40:55.843Z,3.37
2023-01-08T07:43:43.810Z,3.36
2023-01-08T07:46:31.952Z,3.35
2023-01-08T07:49:21.044Z,3.29
2023-01-08T07:52:09.018Z,3.30
2023-01-08T07:54:58.667Z,3.26
2023-01-08T07:57:46.251Z,3.21
2023-01-08T08:00:36.936Z,3.24
2023-01-08T08:03:25.547Z,3.28
2023-01-08T08:06:17.812Z,3.30
2023-01-08T08:09:18.549Z,3.29
2023-01-08T08:12:10.404Z,3.28
2023-01-08T08:14:58.186Z,3.29
2023-01-08T08:17:47.501Z,3.29
2023-01-08T08:20:36.400Z,3.37
2023-01-08T08:23:25.795Z,3.35
2023-01-08T08:26:14.487Z,3.46
2023-01-08T08:29:02.667Z,3.58
2023-01-08T08:31:52.583Z,3.67
2023-01-08T08:34:40.393Z,3.73
2023-01-08T08:37:28.530Z,3.78
2023-01-08T08:40:18.340Z,3.81
2023-01-08T08:43:07.020Z,3.88
2023-01-08T08:45:57.222Z,3.92
2023-01-08T08:51:57.773Z,4.06
2023-01-08T08:54:48.247Z,4.10
2023-01-08T08:57:40.199Z,4.16
2023-01-08T09:00:28.220Z,4.21
2023-01-08T09:03:18.692Z,4.26
2023-01-08T09:06:07.071Z,4.16
2023-01-08T09:08:58.382Z,4.30
2023-01-08T09:11:46.391Z,4.36
2023-01-08T09:14:36.182Z,4.41
2023-01-08T09:17:29.921Z,4.53
2023-01-08T09:20:33.086Z,4.61
2023-01-08T09:23:21.271Z,4.70
2023-01-08T09:26:10.102Z,4.84
2023-01-08T09:28:58.968Z,4.88
2023-01-08T09:31:48.192Z,4.99
2023-01-08T09:34:37.136Z,5.13
2023-01-08T09:37:27.637Z,5.26
2023-01-08T09:40:17.526Z,5.37
2023-01-08T09:43:06.986Z,5.47
2023-01-08T09:46:03.451Z,5.55
2023-01-08T09:48:59.272Z,5.65
2023-01-08T09:51:47.519Z,5.75
2023-01-08T09:54:35.285Z,5.80
2023-01-08T09:57:24.023Z,5.83
2023-01-08T10:00:16.231Z,5.87
2023-01-08T10:03:06.025Z,5.87
2023-01-08T10:05:57.636Z,5.89
2023-01-08T10:08:48.900Z,5.88
2023-01-08T10:11:44.387Z,5.94
2023-01-08T10:14:35.000Z,5.92
2023-01-08T10:17:29.106Z,5.93
2023-01-08T10:20:21.943Z,5.92
2023-01-08T10:23:13.832Z,5.93
2023-01-08T10:26:04.426Z,5.96
2023-01-08T10:28:52.524Z,5.97
2023-01-08T10:31:52.948Z,5.98
2023-01-08T10:34:52.251Z,5.99
2023-01-08T10:37:50.860Z,5.99
2023-01-08T10:40:49.705Z,6.03
2023-01-08T10:43:46.227Z,6.05
2023-01-08T10:46:48.271Z,6.05
2023-01-08T10:49:46.520Z,6.11
2023-01-08T10:52:45.821Z,6.13
2023-01-08T10:55:43.647Z,6.18
2023-01-08T10:58:42.169Z,6.24
2023-01-08T11:01:31.848Z,6.28
2023-01-08T11:04:25.692Z,6.30
2023-01-08T11:07:22.799Z,6.32
2023-01-08T11:10:24.782Z,6.35
2023-01-08T11:13:20.760Z,6.37
2023-01-08T11:16:12.377Z,6.41
2023-01-08T11:19:00.825Z,6.40
2023-01-08T11:22:04.434Z,6.41
2023-01-08T11:25:01.199Z,6.43
2023-01-08T11:28:01.019Z,6.44
2023-01-08T11:31:06.809Z,6.42
2023-01-08T11:34:16.344Z,6.42
2023-01-08T11:37:15.074Z,6.40
2023-01-08T11:40:05.979Z,6.43
2023-01-08T11:43:26.654Z,6.42
2023-01-08T11:46:59.574Z,6.44
2023-01-08T11:50:14.055Z,6.48
2023-01-08T11:53:15.839Z,6.43
2023-01-08T11:56:17.472Z,6.43
2023-01-08T11:59:19.751Z,6.43
2023-01-08T12:02:21.349Z,6.44
2023-01-08T12:05:30.479Z,6.46
2023-01-08T12:08:29.229Z,6.47
2023-01-08T12:11:26.198Z,6.46
2023-01-08T12:14:31.164Z,6.47
2023-01-08T12:17:54.266Z,6.51
2023-01-08T12:20:57.824Z,6.50
2023-01-08T12:24:12.085Z,6.51
2023-01-08T12:27:13.529Z,6.53
2023-01-08T12:30:15.472Z,6.52
2023-01-08T12:33:06.635Z,6.51
2023-01-08T12:36:03.012Z,6.51
2023-01-08T12:39:02.484Z,6.55
2023-01-08T12:41:53.668Z,6.56
2023-01-08T12:44:42.192Z,6.60
2023-01-08T12:47:34.257Z,6.64
2023-01-08T12:50:39.999Z,6.66
2023-01-08T12:53:41.489Z,6.68
2023-01-08T12:56:45.040Z,6.65
2023-01-08T12:59:43.758Z,6.72
2023-01-08T13:02:40.701Z,6.72
2023-01-08T13:05:34.487Z,6.72
2023-01-08T13:08:34.316Z,6.72
2023-01-08T13:11:29.132Z,6.68
2023-01-08T13:14:20.070Z,6.69
2023-01-08T13:17:20.636Z,6.73
2023-01-08T13:20:09.877Z,6.78
2023-01-08T13:23:00.214Z,6.76
2023-01-08T13:26:04.233Z,6.78
2023-01-08T13:28:56.500Z,6.79
2023-01-08T13:32:04.216Z,6.86
2023-01-08T13:35:20.151Z,6.91
2023-01-08T13:38:16.027Z,6.94
2023-01-08T13:41:05.395Z,6.98
2023-01-08T13:44:00.791Z,7.02
2023-01-08T13:46:56.112Z,7.03
2023-01-08T13:49:51.342Z,7.01
2023-01-08T13:52:58.137Z,7.02
2023-01-08T13:56:06.328Z,7.04
2023-01-08T13:58:58.478Z,7.03
2023-01-08T14:01:55.771Z,7.05
2023-01-08T14:04:50.919Z,7.05
2023-01-08T14:07:53.004Z,7.07
2023-01-08T14:10:49.328Z,7.06
2023-01-08T14:13:48.405Z,7.06
2023-01-08T14:17:00.449Z,7.08
2023-01-08T14:19:59.472Z,7.11
2023-01-08T14:22:54.747Z,7.13
2023-01-08T14:25:53.234Z,7.16
2023-01-08T14:28:53.325Z,7.16
2023-01-08T14:31:53.353Z,7.16
2023-01-08T14:35:02.368Z,7.14
2023-01-08T14:37:53.352Z,7.10
2023-01-08T14:40:51.134Z,7.10
2023-01-08T14:43:51.315Z,7.07
2023-01-08T14:46:55.803Z,7.05
2023-01-08T14:49:50.950Z,6.97
2023-01-08T14:53:04.967Z,6.93
2023-01-08T14:55:55.318Z,6.91
2023-01-08T14:58:55.504Z,6.88
2023-01-08T15:02:02.933Z,6.87
2023-01-08T15:05:16.323Z,6.81
2023-01-08T15:08:06.437Z,6.75
2023-01-08T15:11:01.897Z,6.72
2023-01-08T15:13:56.603Z,6.71
2023-01-08T15:17:03.376Z,6.67
2023-01-08T15:19:59.224Z,6.63
2023-01-08T15:22:53.911Z,6.63
2023-01-08T15:25:54.128Z,6.60
2023-01-08T15:28:55.067Z,6.58
2023-01-08T15:31:58.525Z,6.55
2023-01-08T15:34:56.188Z,6.50
2023-01-08T15:37:53.201Z,6.45
2023-01-08T15:40:54.549Z,6.43
2023-01-08T15:44:01.075Z,6.40
2023-01-08T15:47:04.606Z,6.39
2023-01-08T15:49:57.799Z,6.37
2023-01-08T15:53:05.914Z,6.34
2023-01-08T15:55:56.847Z,6.32
2023-01-08T15:58:53.275Z,6.27
2023-01-08T16:01:53.534Z,6.25
2023-01-08T16:05:03.095Z,6.24
2023-01-08T16:07:57.528Z,6.23
2023-01-08T16:11:10.578Z,6.17
2023-01-08T16:14:04.581Z,6.18
2023-01-08T16:16:56.732Z,6.17
2023-01-08T16:19:55.525Z,6.19
2023-01-08T16:22:57.201Z,6.17
2023-01-08T16:25:45.282Z,6.22
2023-01-08T16:28:33.278Z,6.21
2023-01-08T16:31:22.129Z,6.20
2023-01-08T16:34:12.784Z,6.15
2023-01-08T16:37:13.974Z,6.19
2023-01-08T16:40:11.170Z,6.16
2023-01-08T16:43:16.579Z,6.16
2023-01-08T16:46:21.144Z,6.17
2023-01-08T16:49:10.351Z,6.12
2023-01-08T16:51:58.014Z,6.08
2023-01-08T16:54:48.396Z,6.00
2023-01-08T16:57:36.263Z,5.96
2023-01-08T17:00:26.426Z,5.94
2023-01-08T17:03:14.520Z,5.90
2023-01-08T17:06:07.092Z,5.89
2023-01-08T17:08:59.578Z,5.88
2023-01-08T17:11:52.605Z,5.85
2023-01-08T17:17:46.216Z,5.79
2023-01-08T17:20:34.651Z,5.81
2023-01-08T17:23:27.085Z,5.75
2023-01-08T17:26:18.486Z,5.71
2023-01-08T17:29:08.124Z,5.70
2023-01-08T17:31:57.930Z,5.69
2023-01-08T17:34:56.781Z,5.64
2023-01-08T17:38:10.542Z,5.60
2023-01-08T17:41:03.587Z,5.55
2023-01-08T17:43:51.508Z,5.50
2023-01-08T17:46:59.068Z,5.44
2023-01-08T17:49:57.934Z,5.41
2023-01-08T17:52:57.450Z,5.37
2023-01-08T17:56:04.505Z,5.34
2023-01-08T17:58:58.187Z,5.32
2023-01-08T18:01:56.829Z,5.35
2023-01-08T18:04:59.898Z,5.35
2023-01-08T18:08:05.222Z,5.38
2023-01-08T18:10:56.122Z,5.44
2023-01-08T18:14:05.348Z,5.42
2023-01-08T18:17:12.523Z,5.39
2023-01-08T18:20:10.922Z,5.40
2023-01-08T18:22:59.068Z,5.40
2023-01-08T18:25:56.113Z,5.37
2023-01-08T18:29:06.691Z,5.34
2023-01-08T18:31:57.837Z,5.33
2023-01-08T18:35:02.954Z,5.35
2023-01-08T18:38:20.085Z,5.42
2023-01-08T18:41:09.541Z,5.52
2023-01-08T18:43:58.078Z,5.57
2023-01-08T18:46:54.227Z,5.59
2023-01-08T18:50:04.075Z,5.57
2023-01-08T18:53:07.396Z,5.69
2023-01-08T18:56:02.780Z,5.86
2023-01-08T18:59:01.910Z,5.82
2023-01-08T19:01:59.200Z,5.87
2023-01-08T19:05:00.782Z,5.81
2023-01-08T19:08:01.648Z,5.89
2023-01-08T19:11:01.896Z,5.87
2023-01-08T19:13:58.417Z,5.91
2023-01-08T19:17:01.488Z,5.94
2023-01-08T19:20:03.868Z,5.97
2023-01-08T19:23:02.363Z,5.94
2023-01-08T19:26:24.560Z,5.91
2023-01-08T19:29:13.112Z,5.88
2023-01-08T19:32:00.899Z,5.84
2023-01-08T19:35:03.342Z,5.75
2023-01-08T19:38:26.432Z,5.69
2023-01-08T19:41:32.561Z,5.66
2023-01-08T19:44:21.773Z,5.64
2023-01-08T19:47:10.636Z,5.64
2023-01-08T19:50:02.838Z,5.64
2023-01-08T19:53:08.070Z,5.64
2023-01-08T19:56:07.022Z,5.63
2023-01-08T19:59:01.479Z,5.60
2023-01-08T20:02:03.568Z,5.57
2023-01-08T20:05:08.464Z,5.61
2023-01-08T20:08:01.459Z,5.60
2023-01-08T20:11:07.195Z,5.61
2023-01-08T20:14:05.561Z,5.63
2023-01-08T20:17:17.768Z,5.59
2023-01-08T20:20:06.852Z,5.57
2023-01-08T20:23:02.949Z,5.59
2023-01-08T20:26:07.182Z,5.63
2023-01-08T20:29:10.209Z,5.62
2023-01-08T20:32:04.920Z,5.62
2023-01-08T20:34:56.502Z,5.62
2023-01-08T20:38:01.617Z,5.60
2023-01-08T20:41:10.586Z,5.60
2023-01-08T20:44:08.019Z,5.62
2023-01-08T20:46:59.693Z,5.61
2023-01-08T20:50:15.670Z,5.61
2023-01-08T20:53:10.649Z,5.59
2023-01-08T20:56:05.770Z,5.61
2023-01-08T20:59:04.461Z,5.60
2023-01-08T21:02:13.499Z,5.58
2023-01-08T21:05:06.756Z,5.57
2023-01-08T21:08:05.951Z,5.53
2023-01-08T21:11:03.724Z,5.51
2023-01-08T21:14:02.082Z,5.49
2023-01-08T21:17:06.022Z,5.48
2023-01-08T21:20:01.778Z,5.47
2023-01-08T21:23:03.087Z,5.45
2023-01-08T21:26:06.805Z,5.43
2023-01-08T21:29:02.084Z,5.42
2023-01-08T21:32:04.360Z,5.42
2023-01-08T21:35:03.555Z,5.39
2023-01-08T21:38:13.333Z,5.40
2023-01-08T21:41:07.960Z,5.40
2023-01-08T21:44:24.234Z,5.38
2023-01-08T21:47:13.958Z,5.39
2023-01-08T21:50:04.991Z,5.37
2023-01-08T21:53:13.266Z,5.35
2023-01-08T21:56:06.167Z,5.34
2023-01-08T21:59:08.486Z,5.33
2023-01-08T22:02:11.590Z,5.30
2023-01-08T22:05:07.626Z,5.27
2023-01-08T22:08:08.294Z,5.24
2023-01-08T22:11:07.251Z,5.20
2023-01-08T22:14:21.414Z,5.18
2023-01-08T22:17:09.373Z,5.17
2023-01-08T22:20:03.068Z,5.13
2023-01-08T22:23:05.567Z,5.13
2023-01-08T22:26:08.433Z,5.07
2023-01-08T22:29:05.933Z,5.06
2023-01-08T22:34:57.091Z,5.07
2023-01-08T22:37:59.744Z,5.06
2023-01-08T22:40:52.465Z,5.02
2023-01-08T22:44:06.193Z,5.03
2023-01-08T22:47:06.254Z,4.98
2023-01-08T22:53:07.333Z,4.99
2023-01-08T22:56:10.594Z,4.97
2023-01-08T22:59:06.642Z,4.93
2023-01-08T23:02:08.170Z,4.93
2023-01-08T23:05:05.423Z,4.89
2023-01-08T23:07:53.154Z,4.89
2023-01-08T23:11:04.730Z,4.88
2023-01-08T23:14:18.005Z,4.92
2023-01-08T23:17:21.673Z,4.90
2023-01-08T23:20:10.232Z,4.89
2023-01-08T23:22:57.986Z,4.91
2023-01-08T23:26:00.779Z,4.89
2023-01-08T23:29:04.662Z,4.87
2023-01-08T23:32:14.545Z,4.91
2023-01-08T23:35:18.438Z,4.88
2023-01-08T23:38:08.842Z,4.87
2023-01-08T23:40:57.185Z,4.87
2023-01-08T23:47:06.127Z,4.87
2023-01-08T23:50:05.775Z,4.87
2023-01-08T23:53:10.656Z,4.89
2023-01-08T23:56:07.747Z,4.89
2023-01-08T23:59:11.929Z,4.88
